Time;durP1;ratioP1;P1;durP2;ratioP2;P2;SDS_P1;SDS_P2;PMS_P1;PMS_P2;Temp;Humidity;BMP_temperature;BMP_pressure;BME280_temperature;BME280_humidity;BME280_pressure;Samples;Min_cycle;Max_cycle;Signal;HPM_P1;HPM_P2
2021/08/31 00:00:24;;;;;;;7.20;6.50;;;;;;;12.89;100.00;96152.81;4975834;28;20513;-80
2021/08/31 00:02:49;;;;;;;7.53;6.35;;;;;;;13.00;100.00;96157.31;4975361;28;20422;-81
2021/08/31 00:05:14;;;;;;;10.00;6.10;;;;;;;13.01;100.00;96154.59;4975397;28;20423;-80
2021/08/31 00:07:42;;;;;;;9.13;6.90;;;;;;;12.98;100.00;96157.41;4976843;28;20951;-80
2021/08/31 00:10:09;;;;;;;8.10;7.30;;;;;;;12.88;100.00;96163.31;4979605;28;20449;-81
2021/08/31 00:12:35;;;;;;;8.20;6.85;;;;;;;12.89;100.00;96154.59;4997897;28;20516;-80
2021/08/31 00:15:01;;;;;;;8.02;7.05;;;;;;;12.91;100.00;96147.53;4980160;28;20891;-80
2021/08/31 00:17:27;;;;;;;10.63;7.40;;;;;;;12.92;100.00;96154.38;4998316;28;20501;-80
2021/08/31 00:19:52;;;;;;;9.23;7.80;;;;;;;12.92;100.00;96155.22;4998204;28;20457;-81
2021/08/31 00:22:17;;;;;;;7.90;7.20;;;;;;;12.98;100.00;96148.78;4979691;28;20426;-80
2021/08/31 00:24:44;;;;;;;8.90;7.72;;;;;;;13.03;100.00;96146.69;4980113;28;20427;-81
2021/08/31 00:27:10;;;;;;;9.00;7.97;;;;;;;13.04;100.00;96149.19;4979835;28;21060;-80
2021/08/31 00:29:35;;;;;;;7.35;6.60;;;;;;;13.01;100.00;96159.78;4996737;28;20759;-80
2021/08/31 00:32:01;;;;;;;7.25;6.65;;;;;;;13.05;100.00;96155.22;4989214;28;20441;-80
2021/08/31 00:34:26;;;;;;;7.45;6.75;;;;;;;13.07;100.00;96153.38;4978995;28;20426;-80
2021/08/31 00:36:52;;;;;;;10.40;8.00;;;;;;;13.15;100.00;96158.88;4978673;28;20829;-80
2021/08/31 00:39:19;;;;;;;7.77;6.83;;;;;;;13.23;100.00;96155.75;4978908;28;20418;-80
2021/08/31 00:41:47;;;;;;;10.73;8.13;;;;;;;13.18;100.00;96156.09;4988474;28;20423;-80
2021/08/31 00:44:17;;;;;;;10.18;8.32;;;;;;;13.21;100.00;96158.47;4979266;28;20461;-80
2021/08/31 00:46:42;;;;;;;9.15;8.15;;;;;;;13.24;100.00;96154.88;4978297;28;20453;-81
2021/08/31 00:49:08;;;;;;;10.95;8.02;;;;;;;13.26;100.00;96159.03;4978947;28;21144;-80
2021/08/31 00:51:33;;;;;;;9.73;8.18;;;;;;;13.28;100.00;96162.38;4978599;28;20789;-80
2021/08/31 00:53:58;;;;;;;10.57;9.20;;;;;;;13.31;100.00;96156.97;4996398;28;20418;-81
2021/08/31 00:56:24;;;;;;;10.47;9.47;;;;;;;13.22;100.00;96167.13;4978737;28;20987;-80
2021/08/31 00:58:51;;;;;;;13.10;9.77;;;;;;;13.32;100.00;96166.44;4979074;28;20453;-80
2021/08/31 01:01:17;;;;;;;12.30;10.27;;;;;;;13.23;100.00;96169.63;4978860;28;20437;-80
2021/08/31 01:03:43;;;;;;;11.97;10.63;;;;;;;13.16;100.00;96168.34;4978940;28;20426;-81
2021/08/31 01:06:09;;;;;;;15.30;11.75;;;;;;;13.09;100.00;96167.13;4996473;28;20881;-81
2021/08/31 01:08:34;;;;;;;16.90;11.47;;;;;;;13.05;100.00;96166.47;4978268;28;20477;-81
2021/08/31 01:11:02;;;;;;;13.87;11.00;;;;;;;13.11;100.00;96160.03;4978842;28;20786;-80
2021/08/31 01:13:27;;;;;;;17.10;12.65;;;;;;;13.19;100.00;96157.75;4978754;28;20468;-80
2021/08/31 01:15:54;;;;;;;13.40;11.85;;;;;;;13.14;100.00;96162.44;4978228;28;20450;-81
2021/08/31 01:18:22;;;;;;;14.10;11.63;;;;;;;13.06;100.00;96162.94;4978306;28;20454;-81
2021/08/31 01:20:47;;;;;;;14.70;12.73;;;;;;;13.15;100.00;96158.88;4978231;28;20423;-81
2021/08/31 01:23:13;;;;;;;14.10;12.60;;;;;;;13.05;100.00;96165.63;4996274;28;20414;-81
2021/08/31 01:25:40;;;;;;;20.42;12.05;;;;;;;12.99;100.00;96174.69;4977829;28;20418;-80
2021/08/31 01:28:06;;;;;;;13.40;11.98;;;;;;;12.93;100.00;96171.63;4978109;28;20430;-80
2021/08/31 01:30:32;;;;;;;13.43;12.05;;;;;;;12.97;100.00;96178.31;4978277;28;20429;-81
2021/08/31 01:32:58;;;;;;;14.18;12.70;;;;;;;13.09;100.00;96169.72;4978311;28;20426;-81
2021/08/31 01:35:23;;;;;;;13.00;11.77;;;;;;;13.09;100.00;96167.13;4978291;28;20433;-80
2021/08/31 01:37:49;;;;;;;13.27;11.60;;;;;;;13.03;100.00;96173.53;4978619;28;20426;-81
2021/08/31 01:40:14;;;;;;;17.38;11.82;;;;;;;13.02;100.00;96169.28;4995955;28;20450;-80
2021/08/31 01:42:41;;;;;;;14.40;12.57;;;;;;;12.96;100.00;96166.25;4978452;28;20796;-81
2021/08/31 01:45:07;;;;;;;12.75;11.60;;;;;;;12.99;100.00;96166.88;4978068;28;20422;-79
2021/08/31 01:47:33;;;;;;;14.67;11.10;;;;;;;13.00;100.00;96168.53;4977822;28;20433;-80
2021/08/31 01:49:58;;;;;;;18.77;11.03;;;;;;;12.96;100.00;96172.28;4978275;28;20431;-80
2021/08/31 01:52:24;;;;;;;11.70;10.60;;;;;;;13.02;100.00;96165.84;4978444;28;20454;-81
2021/08/31 01:54:49;;;;;;;13.40;11.00;;;;;;;13.01;100.00;96169.34;4995798;28;20421;-81
2021/08/31 01:57:14;;;;;;;12.38;11.07;;;;;;;13.14;100.00;96167.63;4977520;28;20429;-80
2021/08/31 01:59:41;;;;;;;12.97;9.70;;;;;;;13.12;100.00;96172.09;4977762;28;20426;-81
2021/08/31 02:02:06;;;;;;;18.80;11.13;;;;;;;13.33;100.00;96175.06;4977237;28;20484;-80
2021/08/31 02:04:32;;;;;;;13.40;10.60;;;;;;;13.32;100.00;96171.63;4994010;28;20418;-81
2021/08/31 02:06:57;;;;;;;11.90;10.40;;;;;;;13.23;100.00;96174.84;4977679;28;20429;-81
2021/08/31 02:09:23;;;;;;;13.20;10.47;;;;;;;13.18;100.00;96179.50;4977559;28;20469;-80
2021/08/31 02:11:48;;;;;;;12.18;10.15;;;;;;;13.13;100.00;96173.78;4995362;28;20762;-81
2021/08/31 02:14:14;;;;;;;13.03;10.37;;;;;;;13.04;100.00;96182.16;4977683;28;20426;-81
2021/08/31 02:16:41;;;;;;;11.03;9.93;;;;;;;13.07;100.00;96181.97;4977072;28;20419;-80
2021/08/31 02:19:07;;;;;;;10.75;9.60;;;;;;;13.07;100.00;96180.19;4976896;28;20429;-80
2021/08/31 02:21:32;;;;;;;11.25;10.07;;;;;;;13.09;100.00;96180.13;4975912;28;20509;-80
2021/08/31 02:23:57;;;;;;;12.75;9.82;;;;;;;13.12;100.00;96182.47;4975791;28;20489;-80
2021/08/31 02:26:23;;;;;;;12.63;10.10;;;;;;;13.23;100.00;96177.44;4975341;28;20437;-81
2021/08/31 02:28:48;;;;;;;12.47;9.57;;;;;;;13.23;100.00;96184.38;4975716;28;20422;-80
2021/08/31 02:31:14;;;;;;;11.07;9.43;;;;;;;13.19;100.00;96182.91;4975009;28;20419;-80
2021/08/31 02:33:41;;;;;;;12.10;9.80;;;;;;;13.10;100.00;96186.97;4993283;28;20498;-81
2021/08/31 02:36:06;;;;;;;10.20;9.20;;;;;;;13.15;100.00;96190.09;4975191;28;20422;-80
2021/08/31 02:38:32;;;;;;;14.93;12.30;;;;;;;13.04;100.00;96192.56;4992962;28;20839;-80
2021/08/31 02:40:57;;;;;;;12.77;11.53;;;;;;;13.00;100.00;96185.91;4975331;28;20465;-80
2021/08/31 02:43:22;;;;;;;13.27;11.98;;;;;;;13.04;100.00;96189.97;4993056;28;20501;-80
2021/08/31 02:45:48;;;;;;;13.23;11.93;;;;;;;13.04;100.00;96195.16;4976159;28;20457;-81
2021/08/31 02:48:13;;;;;;;15.43;12.37;;;;;;;13.15;100.00;96186.66;4998155;28;20423;-80
2021/08/31 02:50:40;;;;;;;16.10;12.43;;;;;;;13.19;100.00;96191.53;4979914;28;20434;-81
2021/08/31 02:53:05;;;;;;;14.52;13.02;;;;;;;13.18;100.00;96187.28;4976716;28;20513;-80
2021/08/31 02:55:31;;;;;;;14.80;12.70;;;;;;;13.09;100.00;96190.50;4975918;28;20466;-80
2021/08/31 02:57:56;;;;;;;15.17;13.47;;;;;;;13.03;100.00;96196.09;4975870;28;20473;-80
2021/08/31 03:00:28;;;;;;;15.47;12.33;;;;;;;13.03;100.00;96188.31;4976633;28;20544;-80
2021/08/31 03:02:54;;;;;;;15.82;13.27;;;;;;;13.02;100.00;96192.69;4976411;28;20450;-79
2021/08/31 03:05:19;;;;;;;14.77;13.30;;;;;;;12.95;100.00;96193.19;4976265;28;20458;-80
2021/08/31 03:07:46;;;;;;;12.87;11.57;;;;;;;13.00;100.00;96196.31;4976497;28;20461;-81
2021/08/31 03:10:12;;;;;;;12.93;11.63;;;;;;;12.93;100.00;96195.88;4992322;28;21005;-80
2021/08/31 03:12:37;;;;;;;13.10;11.67;;;;;;;12.91;100.00;96191.72;4976403;28;20425;-81
2021/08/31 03:15:03;;;;;;;13.57;12.07;;;;;;;12.86;100.00;96181.59;4975712;28;20481;-81
2021/08/31 03:17:29;;;;;;;12.70;11.45;;;;;;;12.80;100.00;96188.03;4975449;28;20789;-81
2021/08/31 03:19:54;;;;;;;15.03;11.80;;;;;;;12.79;100.00;96186.38;4975781;28;20426;-80
2021/08/31 03:22:19;;;;;;;16.67;13.13;;;;;;;12.81;100.00;96194.06;4993339;28;20433;-80
2021/08/31 03:24:46;;;;;;;18.00;12.63;;;;;;;12.80;100.00;96193.25;4975742;28;20932;-81
2021/08/31 03:27:12;;;;;;;14.10;12.45;;;;;;;12.86;100.00;96198.97;4975349;28;20430;-80
2021/08/31 03:29:37;;;;;;;15.30;13.07;;;;;;;12.88;100.00;96205.75;4975426;28;20514;-81
2021/08/31 03:32:03;;;;;;;14.95;13.45;;;;;;;12.91;100.00;96200.34;4993541;28;20454;-80
2021/08/31 03:34:29;;;;;;;15.23;12.90;;;;;;;12.94;100.00;96204.50;4975387;28;20453;-81
2021/08/31 03:36:54;;;;;;;14.80;13.27;;;;;;;12.90;100.00;96197.81;4975810;28;20430;-80
2021/08/31 03:39:20;;;;;;;16.40;13.43;;;;;;;12.89;100.00;96203.97;4975334;28;20481;-79
2021/08/31 03:41:46;;;;;;;14.63;13.30;;;;;;;12.85;100.00;96211.13;4975527;28;20941;-81
2021/08/31 03:44:12;;;;;;;14.52;13.02;;;;;;;12.84;100.00;96210.31;4997079;28;20449;-80
2021/08/31 03:46:37;;;;;;;15.05;13.55;;;;;;;12.83;100.00;96211.25;4995171;28;20434;-79
2021/08/31 03:49:03;;;;;;;15.73;13.73;;;;;;;12.83;100.00;96213.84;4979012;28;20422;-79
2021/08/31 03:51:28;;;;;;;15.03;13.47;;;;;;;12.81;100.00;96226.09;4996955;28;20418;-79
2021/08/31 03:53:54;;;;;;;26.23;14.27;;;;;;;12.89;100.00;96224.78;4979347;28;20432;-80
2021/08/31 03:56:19;;;;;;;17.02;14.05;;;;;;;12.84;100.00;96217.28;4996403;28;20425;-81
2021/08/31 03:58:46;;;;;;;15.47;13.23;;;;;;;12.85;100.00;96218.94;4979165;28;20857;-79
2021/08/31 04:01:12;;;;;;;15.63;13.15;;;;;;;12.88;100.00;96218.75;4978877;28;20797;-80
2021/08/31 04:03:37;;;;;;;13.57;12.03;;;;;;;12.89;100.00;96222.16;4979105;28;20428;-79
2021/08/31 04:06:03;;;;;;;14.73;13.33;;;;;;;12.84;100.00;96212.91;4978591;28;20890;-80
2021/08/31 04:08:28;;;;;;;15.27;13.68;;;;;;;12.86;100.00;96218.00;4995857;28;20422;-80
2021/08/31 04:10:53;;;;;;;14.77;12.47;;;;;;;12.83;100.00;96221.66;4996316;28;20418;-80
2021/08/31 04:13:19;;;;;;;14.23;12.77;;;;;;;12.78;100.00;96221.09;4995901;28;20434;-80
2021/08/31 04:15:46;;;;;;;16.53;14.20;;;;;;;12.77;100.00;96219.44;4995819;28;20935;-79
2021/08/31 04:18:11;;;;;;;16.67;14.70;;;;;;;12.71;100.00;96230.22;4978464;28;20517;-80
2021/08/31 04:20:37;;;;;;;15.37;13.80;;;;;;;12.77;100.00;96229.81;4978704;28;20512;-80
2021/08/31 04:23:02;;;;;;;19.17;15.27;;;;;;;12.69;100.00;96229.50;4978270;28;20525;-81
2021/08/31 04:25:28;;;;;;;15.10;13.52;;;;;;;12.76;100.00;96224.75;4978081;28;20485;-80
2021/08/31 04:27:53;;;;;;;18.88;14.60;;;;;;;12.66;100.00;96232.28;4978246;28;20487;-79
2021/08/31 04:30:19;;;;;;;18.03;15.03;;;;;;;12.66;100.00;96227.06;4995836;28;20506;-81
2021/08/31 04:32:46;;;;;;;15.83;14.27;;;;;;;12.72;100.00;96233.63;4995612;28;20728;-80
2021/08/31 04:35:11;;;;;;;16.83;15.00;;;;;;;12.78;100.00;96234.09;4978044;28;20851;-80
2021/08/31 04:37:37;;;;;;;17.75;15.40;;;;;;;12.79;100.00;96230.56;4995280;28;20410;-80
2021/08/31 04:40:03;;;;;;;14.93;13.07;;;;;;;12.82;100.00;96234.72;4995267;28;20434;-80
2021/08/31 04:42:29;;;;;;;16.80;14.63;;;;;;;12.82;100.00;96230.34;4978045;28;20454;-81
2021/08/31 04:44:54;;;;;;;18.20;15.43;;;;;;;12.86;100.00;96237.97;4977953;28;20485;-80
2021/08/31 04:47:20;;;;;;;16.13;14.37;;;;;;;12.75;100.00;96236.88;4977445;28;20454;-80
2021/08/31 04:49:47;;;;;;;17.47;15.30;;;;;;;12.70;100.00;96236.34;4977583;28;20784;-80
2021/08/31 04:52:13;;;;;;;20.23;15.52;;;;;;;12.68;100.00;96234.75;4995364;28;20444;-81
2021/08/31 04:54:39;;;;;;;16.23;14.52;;;;;;;12.77;100.00;96242.00;4994610;28;20422;-79
2021/08/31 04:57:04;;;;;;;17.10;14.02;;;;;;;12.80;100.00;96236.59;4994706;28;20414;-79
2021/08/31 04:59:30;;;;;;;17.92;13.77;;;;;;;12.86;100.00;96249.19;4977492;28;20929;-81
2021/08/31 05:01:55;;;;;;;16.73;15.02;;;;;;;12.74;100.00;96256.00;4995151;28;20454;-80
2021/08/31 05:04:21;;;;;;;17.13;14.50;;;;;;;12.84;100.00;96241.50;4977468;28;20942;-79
2021/08/31 05:06:47;;;;;;;14.67;13.10;;;;;;;12.91;100.00;96241.13;4977338;28;20422;-80
2021/08/31 05:09:14;;;;;;;15.02;13.38;;;;;;;12.83;100.00;96247.63;4977444;28;20944;-80
2021/08/31 05:11:39;;;;;;;14.80;13.20;;;;;;;12.84;100.00;96245.88;4977375;28;20777;-80
2021/08/31 05:14:04;;;;;;;14.20;12.70;;;;;;;12.82;100.00;96252.91;4977432;28;20522;-80
2021/08/31 05:16:30;;;;;;;13.88;12.35;;;;;;;12.87;100.00;96244.81;4994972;28;20429;-81
2021/08/31 05:18:56;;;;;;;12.93;11.63;;;;;;;12.90;100.00;96242.84;4977467;28;20422;-79
2021/08/31 05:21:22;;;;;;;14.50;12.90;;;;;;;12.86;100.00;96250.94;4977553;28;20484;-82
2021/08/31 05:23:49;;;;;;;15.30;13.40;;;;;;;12.82;100.00;96251.16;4995672;28;20994;-80
2021/08/31 05:26:14;;;;;;;13.93;12.00;;;;;;;12.82;100.00;96258.13;4977073;28;20825;-80
2021/08/31 05:28:39;;;;;;;14.97;12.57;;;;;;;12.80;100.00;96257.41;4993104;28;20467;-80
2021/08/31 05:31:05;;;;;;;13.13;11.90;;;;;;;12.81;100.00;96256.47;4994380;28;20477;-81
2021/08/31 05:33:30;;;;;;;18.17;13.50;;;;;;;12.70;100.00;96264.94;4976771;28;20441;-80
2021/08/31 05:35:56;;;;;;;14.67;13.00;;;;;;;12.72;100.00;96272.63;4976760;28;20931;-79
2021/08/31 05:38:21;;;;;;;14.53;12.67;;;;;;;12.73;100.00;96269.13;4993133;28;20434;-80
2021/08/31 05:40:48;;;;;;;15.37;13.80;;;;;;;12.66;100.00;96275.63;4972614;28;20430;-80
2021/08/31 05:43:14;;;;;;;16.67;13.25;;;;;;;12.66;100.00;96280.81;4993504;28;20426;-79
2021/08/31 05:45:39;;;;;;;14.97;13.57;;;;;;;12.59;100.00;96283.78;4976577;28;20472;-79
2021/08/31 05:48:05;;;;;;;14.73;13.23;;;;;;;12.62;100.00;96282.78;4978389;28;20426;-79
2021/08/31 05:50:30;;;;;;;14.73;13.17;;;;;;;12.66;100.00;96288.63;4979894;28;20509;-82
2021/08/31 05:52:56;;;;;;;15.40;13.13;;;;;;;12.68;100.00;96298.00;4975464;28;20499;-83
2021/08/31 05:55:21;;;;;;;14.05;11.98;;;;;;;12.65;100.00;96287.78;4990647;28;20471;-82
2021/08/31 05:57:48;;;;;;;12.73;11.43;;;;;;;12.70;100.00;96290.91;4990269;28;20442;-81
2021/08/31 06:00:14;;;;;;;14.75;12.48;;;;;;;12.69;100.00;96293.63;4973598;28;20488;-81
2021/08/31 06:02:42;;;;;;;13.20;11.40;;;;;;;12.67;100.00;96295.47;4995650;28;20427;-81
2021/08/31 06:05:08;;;;;;;19.20;17.23;;;;;;;12.67;100.00;96292.88;4992706;28;20419;-81
2021/08/31 06:07:34;;;;;;;15.45;13.93;;;;;;;12.67;100.00;96293.72;4976016;28;20852;-80
2021/08/31 06:10:00;;;;;;;16.25;12.32;;;;;;;12.64;100.00;96299.09;4993502;28;20426;-81
2021/08/31 06:12:26;;;;;;;61.28;49.58;;;;;;;12.75;100.00;96299.25;4993146;28;20851;-81
2021/08/31 06:14:52;;;;;;;20.07;16.50;;;;;;;12.79;100.00;96298.16;4975633;28;20426;-81
2021/08/31 06:17:19;;;;;;;15.02;11.45;;;;;;;12.86;100.00;96298.56;4992828;28;20522;-81
2021/08/31 06:19:45;;;;;;;28.02;22.52;;;;;;;12.89;100.00;96306.19;4993312;28;20823;-81
2021/08/31 06:22:11;;;;;;;128.55;88.25;;;;;;;12.81;100.00;96303.25;4975530;28;20513;-81
2021/08/31 06:24:36;;;;;;;69.80;48.55;;;;;;;12.80;100.00;96301.59;4975745;28;20449;-81
2021/08/31 06:27:03;;;;;;;38.23;30.10;;;;;;;12.83;100.00;96309.19;4975362;28;20438;-81
2021/08/31 06:29:29;;;;;;;17.23;14.87;;;;;;;12.78;100.00;96312.06;4975309;28;20466;-80
2021/08/31 06:31:56;;;;;;;11.90;10.60;;;;;;;12.89;100.00;96316.59;4975543;28;20425;-80
2021/08/31 06:34:21;;;;;;;10.55;9.55;;;;;;;12.94;100.00;96318.88;4975752;28;20944;-81
2021/08/31 06:36:47;;;;;;;10.95;9.88;;;;;;;12.99;100.00;96322.03;4975590;28;20426;-79
2021/08/31 06:39:13;;;;;;;10.00;9.07;;;;;;;13.05;100.00;96321.63;4975322;28;20426;-79
2021/08/31 06:41:39;;;;;;;10.45;9.35;;;;;;;13.08;100.00;96326.66;4975623;28;20426;-79
2021/08/31 06:44:04;;;;;;;10.65;9.43;;;;;;;13.15;100.00;96330.53;4976858;28;20426;-80
2021/08/31 06:46:30;;;;;;;13.45;10.43;;;;;;;13.09;100.00;96333.53;4975218;28;20423;-78
2021/08/31 06:48:57;;;;;;;11.80;9.68;;;;;;;13.13;100.00;96332.41;4982802;28;20447;-72
2021/08/31 06:51:23;;;;;;;12.75;9.63;;;;;;;13.21;100.00;96327.53;4987817;28;20793;-78
2021/08/31 06:53:48;;;;;;;10.98;8.90;;;;;;;13.16;100.00;96328.75;4980208;28;20414;-80
2021/08/31 06:56:13;;;;;;;10.73;9.63;;;;;;;13.15;100.00;96332.28;4977518;28;20484;-80
2021/08/31 06:58:39;;;;;;;10.93;9.63;;;;;;;13.28;100.00;96330.63;4979804;28;20426;-80
2021/08/31 07:01:04;;;;;;;11.00;9.60;;;;;;;13.19;100.00;96337.19;4979375;28;20458;-79
2021/08/31 07:03:30;;;;;;;10.57;9.57;;;;;;;13.22;100.00;96331.81;4986590;28;20435;-80
2021/08/31 07:05:57;;;;;;;13.87;10.67;;;;;;;13.08;100.00;96334.44;4977079;28;20534;-80
2021/08/31 07:08:22;;;;;;;11.95;10.75;;;;;;;13.19;100.00;96337.19;4995423;28;20426;-79
2021/08/31 07:10:47;;;;;;;14.63;10.43;;;;;;;13.23;100.00;96336.09;4976899;28;20430;-79
2021/08/31 07:13:15;;;;;;;11.60;9.20;;;;;;;13.34;100.00;96337.19;4995449;28;20477;-81
2021/08/31 07:15:40;;;;;;;10.70;8.88;;;;;;;13.43;100.00;96336.59;4994987;28;20430;-80
2021/08/31 07:18:06;;;;;;;10.87;8.03;;;;;;;13.51;100.00;96342.13;4989415;28;20430;-78
2021/08/31 07:20:31;;;;;;;10.13;8.63;;;;;;;13.55;100.00;96339.22;4962882;28;20433;-80
2021/08/31 07:22:58;;;;;;;11.03;8.77;;;;;;;13.43;100.00;96340.03;4978455;28;20437;-79
2021/08/31 07:25:24;;;;;;;9.75;7.93;;;;;;;13.58;100.00;96340.78;4979778;28;20513;-83
2021/08/31 07:27:49;;;;;;;10.90;7.97;;;;;;;13.63;100.00;96343.09;4995554;28;20445;-79
2021/08/31 07:30:15;;;;;;;10.65;8.20;;;;;;;13.76;100.00;96354.38;4995338;28;20417;-80
2021/08/31 07:32:41;;;;;;;8.60;7.75;;;;;;;13.62;100.00;96351.84;4977126;28;20434;-81
2021/08/31 07:35:08;;;;;;;12.68;11.38;;;;;;;13.43;100.00;96357.41;4986654;28;20503;-79
2021/08/31 07:37:33;;;;;;;8.70;7.90;;;;;;;13.50;100.00;96359.50;5000338;28;20432;-79
2021/08/31 07:40:00;;;;;;;10.93;8.53;;;;;;;13.34;100.00;96358.81;5018579;28;20420;-79
2021/08/31 07:42:26;;;;;;;11.40;8.68;;;;;;;13.25;100.00;96359.44;5018863;28;20460;-78
2021/08/31 07:44:51;;;;;;;12.02;8.80;;;;;;;13.29;100.00;96363.50;5021075;28;20417;-79
2021/08/31 07:47:17;;;;;;;14.70;10.27;;;;;;;13.40;100.00;96360.22;5001171;28;20428;-79
2021/08/31 07:49:43;;;;;;;26.50;16.67;;;;;;;13.45;100.00;96366.78;5018976;28;20899;-83
2021/08/31 07:52:08;;;;;;;28.93;25.00;;;;;;;13.48;100.00;96360.53;4996251;28;20492;-79
2021/08/31 07:54:34;;;;;;;14.17;11.13;;;;;;;13.58;100.00;96369.44;4980666;28;20426;-79
2021/08/31 07:57:01;;;;;;;11.13;8.97;;;;;;;13.46;100.00;96362.41;4981997;28;20746;-80
2021/08/31 07:59:26;;;;;;;10.33;8.80;;;;;;;13.51;100.00;96373.34;5000682;28;20477;-80
2021/08/31 08:01:52;;;;;;;10.47;8.17;;;;;;;13.58;100.00;96371.19;5001916;28;20420;-79
2021/08/31 08:04:17;;;;;;;10.77;8.93;;;;;;;13.46;100.00;96375.41;5019053;28;20787;-80
2021/08/31 08:06:43;;;;;;;8.23;7.33;;;;;;;13.58;100.00;96374.63;5014367;28;20444;-81
2021/08/31 08:09:08;;;;;;;8.03;7.23;;;;;;;13.61;100.00;96377.03;4997103;28;20427;-81
2021/08/31 08:11:34;;;;;;;8.63;7.77;;;;;;;13.65;100.00;96383.72;5018050;28;20440;-81
2021/08/31 08:14:01;;;;;;;10.50;8.15;;;;;;;13.55;100.00;96388.66;5017130;28;20420;-81
2021/08/31 08:16:26;;;;;;;9.73;8.32;;;;;;;13.71;100.00;96398.06;4997607;28;20511;-82
2021/08/31 08:18:52;;;;;;;7.95;7.15;;;;;;;13.63;100.00;96395.16;4998442;28;20452;-83
2021/08/31 08:21:18;;;;;;;8.43;6.63;;;;;;;13.58;100.00;96400.66;4985253;28;20430;-83
2021/08/31 08:23:44;;;;;;;8.35;6.57;;;;;;;13.66;100.00;96395.78;4976314;28;20431;-83
2021/08/31 08:26:09;;;;;;;12.03;10.50;;;;;;;13.73;100.00;96399.66;4993455;28;20449;-82
2021/08/31 08:28:36;;;;;;;10.40;8.00;;;;;;;13.63;100.00;96400.34;4977255;28;20442;-78
2021/08/31 08:31:04;;;;;;;20.07;17.30;;;;;;;13.68;100.00;96403.47;4981019;28;20426;-79
2021/08/31 08:33:32;;;;;;;7.28;6.65;;;;;;;13.81;100.00;96404.34;4982189;28;20427;-78
2021/08/31 08:35:58;;;;;;;7.22;6.35;;;;;;;13.89;100.00;96411.66;4981905;28;20422;-79
2021/08/31 08:38:23;;;;;;;7.40;6.60;;;;;;;13.87;100.00;96413.53;4981325;28;20433;-79
2021/08/31 08:40:49;;;;;;;7.72;6.25;;;;;;;13.89;100.00;96407.28;5000023;28;20423;-79
2021/08/31 08:43:14;;;;;;;6.90;5.75;;;;;;;13.97;100.00;96409.38;4981916;28;20434;-79
2021/08/31 08:45:44;;;;;;;11.00;6.65;;;;;;;14.28;100.00;96414.22;4999487;28;20450;-79
2021/08/31 08:48:18;;;;;;;9.82;6.78;;;;;;;14.40;100.00;96419.56;4982896;28;20426;-79
2021/08/31 08:50:43;;;;;;;8.65;6.93;;;;;;;14.05;100.00;96420.13;4988261;28;20424;-79
2021/08/31 08:53:10;;;;;;;7.35;6.00;;;;;;;14.12;100.00;96423.16;4987056;28;20427;-79
2021/08/31 08:55:36;;;;;;;7.85;6.60;;;;;;;14.09;100.00;96418.16;4985720;28;20442;-78
2021/08/31 08:58:01;;;;;;;8.20;6.57;;;;;;;14.11;100.00;96413.69;5000996;28;20437;-79
2021/08/31 09:00:52;;;;;;;9.23;6.53;;;;;;;14.02;100.00;96423.78;4981702;28;20425;-79
2021/08/31 09:03:20;;;;;;;7.70;6.30;;;;;;;14.11;100.00;96422.34;4981857;28;21033;-78
2021/08/31 09:05:46;;;;;;;6.65;5.93;;;;;;;14.23;100.00;96428.50;4982121;28;20422;-78
2021/08/31 09:08:11;;;;;;;9.67;6.10;;;;;;;14.34;100.00;96426.00;4979680;28;20956;-78
2021/08/31 09:10:37;;;;;;;8.63;6.22;;;;;;;14.49;100.00;96424.13;4994696;28;20823;-77
2021/08/31 09:13:03;;;;;;;9.93;6.13;;;;;;;14.53;100.00;96433.44;4977083;28;20418;-78
2021/08/31 09:15:31;;;;;;;8.68;5.78;;;;;;;14.54;100.00;96429.91;4993883;28;20423;-78
2021/08/31 09:18:15;;;;;;;9.18;6.10;;;;;;;14.40;100.00;96440.41;4994549;28;20426;-79
2021/08/31 09:20:45;;;;;;;6.50;5.90;;;;;;;14.33;100.00;96433.94;4993963;28;20432;-78
2021/08/31 09:23:17;;;;;;;9.10;6.25;;;;;;;14.44;100.00;96439.25;4976111;28;20506;-77
2021/08/31 09:25:44;;;;;;;6.87;5.87;;;;;;;14.43;100.00;96433.22;4975775;28;20452;-77
2021/08/31 09:28:25;;;;;;;8.48;6.28;;;;;;;14.39;100.00;96433.53;4993542;28;20925;-78
2021/08/31 09:30:56;;;;;;;5.50;5.00;;;;;;;14.50;100.00;96437.09;4975840;28;20422;-77
2021/08/31 09:33:24;;;;;;;8.65;5.47;;;;;;;14.40;100.00;96438.63;4976608;28;20434;-78
2021/08/31 09:36:02;;;;;;;6.88;5.75;;;;;;;14.38;100.00;96444.88;4994352;28;20418;-78
2021/08/31 09:38:38;;;;;;;9.60;5.90;;;;;;;14.43;100.00;96441.03;4976235;28;20440;-78
2021/08/31 09:41:03;;;;;;;7.45;5.50;;;;;;;14.58;100.00;96441.78;4993710;28;20426;-78
2021/08/31 09:43:29;;;;;;;7.83;5.60;;;;;;;14.55;100.00;96443.78;4976567;28;20456;-78
2021/08/31 09:45:55;;;;;;;7.03;5.47;;;;;;;14.49;100.00;96451.06;4993126;28;20427;-77
2021/08/31 09:48:21;;;;;;;9.73;5.80;;;;;;;14.56;100.00;96451.47;4988629;28;20455;-78
2021/08/31 09:50:48;;;;;;;6.68;5.80;;;;;;;14.43;100.00;96451.44;4992059;28;20969;-79
2021/08/31 09:53:18;;;;;;;6.82;6.22;;;;;;;14.31;100.00;96454.03;5014402;28;20417;-79
2021/08/31 09:55:46;;;;;;;7.13;6.00;;;;;;;14.28;100.00;96453.31;5014179;28;20906;-78
2021/08/31 09:58:14;;;;;;;9.20;5.85;;;;;;;14.33;100.00;96457.38;4996080;28;20416;-79
2021/08/31 10:00:42;;;;;;;6.90;5.75;;;;;;;14.71;100.00;96450.44;4996174;28;20432;-78
2021/08/31 10:03:07;;;;;;;7.83;5.80;;;;;;;14.49;100.00;96455.41;5014157;28;20511;-78
2021/08/31 10:05:34;;;;;;;6.50;5.83;;;;;;;14.87;100.00;96454.59;5003402;28;20849;-79
2021/08/31 10:08:00;;;;;;;11.23;6.87;;;;;;;14.94;100.00;96458.44;4994213;28;20758;-79
2021/08/31 10:10:28;;;;;;;6.18;5.55;;;;;;;15.09;100.00;96451.31;4976196;28;20419;-78
2021/08/31 10:12:56;;;;;;;6.32;5.47;;;;;;;14.89;100.00;96450.13;4976359;28;20426;-79
2021/08/31 10:15:22;;;;;;;8.15;5.82;;;;;;;14.82;100.00;96457.53;4976203;28;20943;-79
2021/08/31 10:17:50;;;;;;;7.15;5.50;;;;;;;14.75;100.00;96464.09;4975950;28;20433;-78
2021/08/31 10:20:19;;;;;;;6.15;5.50;;;;;;;14.81;100.00;96455.84;4993667;28;20792;-78
2021/08/31 10:22:45;;;;;;;6.15;5.25;;;;;;;14.95;100.00;96460.97;4976053;28;20458;-79
2021/08/31 10:25:10;;;;;;;6.10;5.50;;;;;;;14.85;100.00;96461.69;4989978;28;20463;-79
2021/08/31 10:27:39;;;;;;;8.30;5.63;;;;;;;14.89;100.00;96463.97;4990669;28;20934;-78
2021/08/31 10:30:35;;;;;;;6.70;5.18;;;;;;;14.76;100.00;96461.41;4988298;28;20982;-77
2021/08/31 10:33:03;;;;;;;7.28;5.63;;;;;;;14.88;100.00;96462.31;4986931;28;20430;-78
2021/08/31 10:35:50;;;;;;;6.10;5.20;;;;;;;15.01;100.00;96464.91;4983320;28;20815;-77
2021/08/31 10:38:39;;;;;;;6.45;5.15;;;;;;;15.13;100.00;96458.84;4970397;28;21335;-78
2021/08/31 10:41:31;;;;;;;6.55;5.85;;;;;;;15.22;100.00;96463.41;4974451;28;20859;-77
2021/08/31 10:43:58;;;;;;;9.25;6.13;;;;;;;15.25;100.00;96467.59;4985213;28;20435;-77
2021/08/31 10:46:24;;;;;;;6.80;5.78;;;;;;;15.40;100.00;96465.69;4991654;28;20426;-77
2021/08/31 10:48:59;;;;;;;10.17;6.00;;;;;;;15.13;100.00;96468.44;4988152;28;20476;-77
2021/08/31 10:51:24;;;;;;;7.90;5.93;;;;;;;14.81;100.00;96474.13;4987742;28;20430;-77
2021/08/31 10:53:50;;;;;;;8.83;5.57;;;;;;;14.81;100.00;96468.06;4965794;28;20796;-76
2021/08/31 10:56:27;;;;;;;11.07;5.97;;;;;;;14.68;100.00;96463.69;4991547;28;20423;-75
2021/08/31 10:58:53;;;;;;;5.72;5.20;;;;;;;15.03;100.00;96470.03;4991484;28;20506;-76
2021/08/31 11:01:22;;;;;;;8.57;6.07;;;;;;;14.99;100.00;96475.47;4986942;28;20796;-76
2021/08/31 11:03:49;;;;;;;10.32;5.95;;;;;;;14.82;100.00;96475.78;4991614;28;20426;-76
2021/08/31 11:06:34;;;;;;;6.88;5.45;;;;;;;15.16;100.00;96484.72;4991417;28;20481;-76
2021/08/31 11:09:11;;;;;;;6.65;5.20;;;;;;;14.98;100.00;96478.16;4991574;28;20419;-76
2021/08/31 11:11:37;;;;;;;7.75;5.63;;;;;;;14.91;100.00;96476.94;4974056;28;20510;-76